sensor_id;sensor_type;location;lat;lon;timestamp;pressure;altitude;pressure_sealevel;temperature;humidity
62849;BME280;48941;49.516;8.286;2023-04-28T00:02:16;100212.00;;;12.59;78.00
62849;BME280;48941;49.516;8.286;2023-04-28T00:04:44;100206.53;;;12.50;77.74
62849;BME280;48941;49.516;8.286;2023-04-28T00:07:13;100216.50;;;12.48;78.16
62849;BME280;48941;49.516;8.286;2023-04-28T00:09:40;100209.03;;;12.52;78.73
62849;BME280;48941;49.516;8.286;2023-04-28T00:12:08;100206.38;;;12.52;78.94
62849;BME280;48941;49.516;8.286;2023-04-28T00:14:38;100205.41;;;12.53;78.81
62849;BME280;48941;49.516;8.286;2023-04-28T00:17:05;100187.81;;;12.50;77.94
62849;BME280;48941;49.516;8.286;2023-04-28T00:19:35;100179.09;;;12.48;79.74
62849;BME280;48941;49.516;8.286;2023-04-28T00:22:04;100184.00;;;12.43;81.74
62849;BME280;48941;49.516;8.286;2023-04-28T00:24:32;100171.09;;;12.39;82.08
62849;BME280;48941;49.516;8.286;2023-04-28T00:27:01;100183.59;;;12.38;81.05
62849;BME280;48941;49.516;8.286;2023-04-28T00:29:29;100169.53;;;12.36;80.99
62849;BME280;48941;49.516;8.286;2023-04-28T00:31:58;100157.16;;;12.35;81.51
62849;BME280;48941;49.516;8.286;2023-04-28T00:34:26;100157.16;;;12.35;80.74
62849;BME280;48941;49.516;8.286;2023-04-28T00:36:56;100153.09;;;12.31;81.07
62849;BME280;48941;49.516;8.286;2023-04-28T00:39:24;100159.41;;;12.30;81.01
62849;BME280;48941;49.516;8.286;2023-04-28T00:41:53;100154.06;;;12.30;81.59
62849;BME280;48941;49.516;8.286;2023-04-28T00:44:20;100153.78;;;12.33;82.12
62849;BME280;48941;49.516;8.286;2023-04-28T00:46:48;100163.78;;;12.31;82.06
62849;BME280;48941;49.516;8.286;2023-04-28T00:49:18;100149.72;;;12.29;82.26
62849;BME280;48941;49.516;8.286;2023-04-28T00:51:45;100144.25;;;12.30;82.98
62849;BME280;48941;49.516;8.286;2023-04-28T00:54:13;100143.38;;;12.30;82.93
62849;BME280;48941;49.516;8.286;2023-04-28T00:56:42;100139.03;;;12.29;81.92
62849;BME280;48941;49.516;8.286;2023-04-28T00:59:10;100132.84;;;12.28;82.15
62849;BME280;48941;49.516;8.286;2023-04-28T01:01:37;100129.31;;;12.28;81.55
62849;BME280;48941;49.516;8.286;2023-04-28T01:04:05;100125.81;;;12.27;80.73
62849;BME280;48941;49.516;8.286;2023-04-28T01:06:36;100121.31;;;12.28;80.44
62849;BME280;48941;49.516;8.286;2023-04-28T01:09:04;100118.63;;;12.28;80.67
62849;BME280;48941;49.516;8.286;2023-04-28T01:11:33;100117.94;;;12.26;80.98
62849;BME280;48941;49.516;8.286;2023-04-28T01:14:00;100114.44;;;12.25;81.50
62849;BME280;48941;49.516;8.286;2023-04-28T01:16:29;100109.53;;;12.21;82.45
62849;BME280;48941;49.516;8.286;2023-04-28T01:18:59;100115.00;;;12.19;82.67
62849;BME280;48941;49.516;8.286;2023-04-28T01:21:27;100118.09;;;12.14;83.24
62849;BME280;48941;49.516;8.286;2023-04-28T01:23:57;100113.03;;;12.11;84.01
62849;BME280;48941;49.516;8.286;2023-04-28T01:26:25;100103.34;;;12.10;84.23
62849;BME280;48941;49.516;8.286;2023-04-28T01:28:53;100104.31;;;12.09;84.21
62849;BME280;48941;49.516;8.286;2023-04-28T01:31:20;100108.94;;;12.07;83.21
62849;BME280;48941;49.516;8.286;2023-04-28T01:33:48;100105.16;;;12.10;83.18
62849;BME280;48941;49.516;8.286;2023-04-28T01:36:16;100111.88;;;12.14;84.00
62849;BME280;48941;49.516;8.286;2023-04-28T01:38:44;100105.84;;;12.12;84.45
62849;BME280;48941;49.516;8.286;2023-04-28T01:41:13;100104.03;;;12.12;84.89
62849;BME280;48941;49.516;8.286;2023-04-28T01:43:41;100092.38;;;12.13;84.62
62849;BME280;48941;49.516;8.286;2023-04-28T01:46:09;100100.50;;;12.12;84.38
62849;BME280;48941;49.516;8.286;2023-04-28T01:48:37;100112.19;;;12.11;84.49
62849;BME280;48941;49.516;8.286;2023-04-28T01:51:07;100120.19;;;12.11;84.93
62849;BME280;48941;49.516;8.286;2023-04-28T01:53:35;100116.69;;;12.10;85.48
62849;BME280;48941;49.516;8.286;2023-04-28T01:56:03;100118.38;;;12.11;85.70
62849;BME280;48941;49.516;8.286;2023-04-28T01:58:32;100111.19;;;12.12;84.59
62849;BME280;48941;49.516;8.286;2023-04-28T02:01:00;100110.34;;;12.11;84.46
62849;BME280;48941;49.516;8.286;2023-04-28T02:03:28;100108.50;;;12.12;84.42
62849;BME280;48941;49.516;8.286;2023-04-28T02:05:56;100103.03;;;12.13;84.12
62849;BME280;48941;49.516;8.286;2023-04-28T02:08:24;100099.53;;;12.13;84.31
62849;BME280;48941;49.516;8.286;2023-04-28T02:10:52;100115.00;;;12.09;85.29
62849;BME280;48941;49.516;8.286;2023-04-28T02:13:20;100110.66;;;12.08;85.75
62849;BME280;48941;49.516;8.286;2023-04-28T02:15:49;100106.16;;;12.09;84.90
62849;BME280;48941;49.516;8.286;2023-04-28T02:18:16;100101.66;;;12.09;84.73
62849;BME280;48941;49.516;8.286;2023-04-28T02:20:44;100101.66;;;12.09;85.09
62849;BME280;48941;49.516;8.286;2023-04-28T02:23:12;100108.69;;;12.10;85.52
62849;BME280;48941;49.516;8.286;2023-04-28T02:25:40;100113.16;;;12.10;85.17
62849;BME280;48941;49.516;8.286;2023-04-28T02:28:07;100116.81;;;12.09;85.56
62849;BME280;48941;49.516;8.286;2023-04-28T02:30:35;100113.31;;;12.08;85.75
62849;BME280;48941;49.516;8.286;2023-04-28T02:33:04;100105.31;;;12.08;86.37
62849;BME280;48941;49.516;8.286;2023-04-28T02:35:32;100104.44;;;12.08;86.13
62849;BME280;48941;49.516;8.286;2023-04-28T02:38:00;100114.16;;;12.09;85.57
62849;BME280;48941;49.516;8.286;2023-04-28T02:40:27;100115.13;;;12.08;84.93
62849;BME280;48941;49.516;8.286;2023-04-28T02:42:55;100113.59;;;12.05;84.52
62849;BME280;48941;49.516;8.286;2023-04-28T02:45:23;100117.94;;;12.06;84.38
62849;BME280;48941;49.516;8.286;2023-04-28T02:47:51;100110.66;;;12.08;84.13
62849;BME280;48941;49.516;8.286;2023-04-28T02:50:21;100111.47;;;12.09;83.30
62849;BME280;48941;49.516;8.286;2023-04-28T02:52:49;100098.00;;;12.10;83.76
62849;BME280;48941;49.516;8.286;2023-04-28T02:55:17;100094.34;;;12.11;82.51
62849;BME280;48941;49.516;8.286;2023-04-28T02:57:49;100093.38;;;12.12;83.80
62849;BME280;48941;49.516;8.286;2023-04-28T03:00:18;100082.53;;;12.14;83.53
62849;BME280;48941;49.516;8.286;2023-04-28T03:02:46;100075.22;;;12.16;80.92
62849;BME280;48941;49.516;8.286;2023-04-28T03:05:14;100070.75;;;12.17;81.09
62849;BME280;48941;49.516;8.286;2023-04-28T03:07:43;100071.44;;;12.19;80.76
62849;BME280;48941;49.516;8.286;2023-04-28T03:10:11;100066.66;;;12.22;80.52
62849;BME280;48941;49.516;8.286;2023-04-28T03:12:38;100058.50;;;12.24;79.54
62849;BME280;48941;49.516;8.286;2023-04-28T03:15:07;100055.69;;;12.25;79.81
62849;BME280;48941;49.516;8.286;2023-04-28T03:17:38;100042.34;;;12.25;79.19
62849;BME280;48941;49.516;8.286;2023-04-28T03:20:08;100033.63;;;12.23;79.62
62849;BME280;48941;49.516;8.286;2023-04-28T03:22:36;100045.72;;;12.18;79.38
62849;BME280;48941;49.516;8.286;2023-04-28T03:25:06;100050.78;;;12.21;79.77
62849;BME280;48941;49.516;8.286;2023-04-28T03:27:34;100047.97;;;12.22;79.53
62849;BME280;48941;49.516;8.286;2023-04-28T03:30:02;100042.63;;;12.22;79.48
62849;BME280;48941;49.516;8.286;2023-04-28T03:32:30;100055.69;;;12.25;79.41
62849;BME280;48941;49.516;8.286;2023-04-28T03:34:57;100052.06;;;12.26;79.25
62849;BME280;48941;49.516;8.286;2023-04-28T03:37:25;100052.19;;;12.25;79.54
62849;BME280;48941;49.516;8.286;2023-04-28T03:39:53;100048.13;;;12.21;79.03
62849;BME280;48941;49.516;8.286;2023-04-28T03:42:22;100034.75;;;12.21;79.06
62849;BME280;48941;49.516;8.286;2023-04-28T03:44:50;100049.94;;;12.20;79.30
62849;BME280;48941;49.516;8.286;2023-04-28T03:47:18;100047.53;;;12.17;79.56
62849;BME280;48941;49.516;8.286;2023-04-28T03:49:45;100045.59;;;12.19;79.28
62849;BME280;48941;49.516;8.286;2023-04-28T03:52:13;100045.59;;;12.19;78.58
62849;BME280;48941;49.516;8.286;2023-04-28T03:54:41;100046.53;;;12.18;79.25
62849;BME280;48941;49.516;8.286;2023-04-28T03:57:09;100044.88;;;12.17;78.68
62849;BME280;48941;49.516;8.286;2023-04-28T03:59:38;100039.53;;;12.17;79.52
62849;BME280;48941;49.516;8.286;2023-04-28T04:02:06;100020.16;;;12.15;80.06
62849;BME280;48941;49.516;8.286;2023-04-28T04:04:33;100020.28;;;12.13;79.91
62849;BME280;48941;49.516;8.286;2023-04-28T04:07:02;100017.75;;;12.12;80.59
62849;BME280;48941;49.516;8.286;2023-04-28T04:09:30;100013.41;;;12.11;80.79
62849;BME280;48941;49.516;8.286;2023-04-28T04:11:57;100015.38;;;12.09;82.39
62849;BME280;48941;49.516;8.286;2023-04-28T04:14:26;100012.00;;;12.07;83.18
62849;BME280;48941;49.516;8.286;2023-04-28T04:16:55;100016.78;;;12.03;82.99
62849;BME280;48941;49.516;8.286;2023-04-28T04:19:23;100022.13;;;12.03;83.45
62849;BME280;48941;49.516;8.286;2023-04-28T04:21:52;100025.50;;;12.05;82.58
62849;BME280;48941;49.516;8.286;2023-04-28T04:24:20;100019.19;;;12.06;82.54
62849;BME280;48941;49.516;8.286;2023-04-28T04:26:48;100011.88;;;12.08;81.77
62849;BME280;48941;49.516;8.286;2023-04-28T04:29:15;100013.56;;;12.09;82.04
62849;BME280;48941;49.516;8.286;2023-04-28T04:31:43;100012.84;;;12.07;82.45
62849;BME280;48941;49.516;8.286;2023-04-28T04:34:13;100019.19;;;12.06;81.89
62849;BME280;48941;49.516;8.286;2023-04-28T04:36:41;100007.50;;;12.07;82.13
62849;BME280;48941;49.516;8.286;2023-04-28T04:39:09;100010.19;;;12.07;81.98
62849;BME280;48941;49.516;8.286;2023-04-28T04:41:37;100018.88;;;12.09;81.80
62849;BME280;48941;49.516;8.286;2023-04-28T04:44:04;100013.41;;;12.11;81.95
62849;BME280;48941;49.516;8.286;2023-04-28T04:46:32;100009.91;;;12.10;82.29
62849;BME280;48941;49.516;8.286;2023-04-28T04:49:00;100017.91;;;12.10;82.34
62849;BME280;48941;49.516;8.286;2023-04-28T04:51:29;100016.22;;;12.09;82.48
62849;BME280;48941;49.516;8.286;2023-04-28T04:53:57;100012.00;;;12.07;82.85
62849;BME280;48941;49.516;8.286;2023-04-28T04:56:25;100004.97;;;12.06;82.96
62849;BME280;48941;49.516;8.286;2023-04-28T04:58:53;100003.44;;;12.03;83.45
62849;BME280;48941;49.516;8.286;2023-04-28T05:01:21;99994.03;;;11.99;83.33
62849;BME280;48941;49.516;8.286;2023-04-28T05:03:48;99997.84;;;11.97;84.15
62849;BME280;48941;49.516;8.286;2023-04-28T05:06:17;100001.59;;;11.94;84.75
62849;BME280;48941;49.516;8.286;2023-04-28T05:08:46;100003.56;;;11.92;84.88
62849;BME280;48941;49.516;8.286;2023-04-28T05:11:13;99999.47;;;11.88;84.76
62849;BME280;48941;49.516;8.286;2023-04-28T05:13:41;100011.41;;;11.84;85.45
62849;BME280;48941;49.516;8.286;2023-04-28T05:16:09;100007.22;;;11.81;85.73
62849;BME280;48941;49.516;8.286;2023-04-28T05:18:37;100015.47;;;11.78;86.92
62849;BME280;48941;49.516;8.286;2023-04-28T05:21:05;100022.50;;;11.79;87.38
62849;BME280;48941;49.516;8.286;2023-04-28T05:23:33;100021.69;;;11.79;87.77
62849;BME280;48941;49.516;8.286;2023-04-28T05:26:02;100018.16;;;11.78;87.69
62849;BME280;48941;49.516;8.286;2023-04-28T05:28:30;100016.47;;;11.77;88.96
62849;BME280;48941;49.516;8.286;2023-04-28T05:30:58;100020.97;;;11.76;89.81
62849;BME280;48941;49.516;8.286;2023-04-28T05:33:26;100005.25;;;11.73;89.58
62849;BME280;48941;49.516;8.286;2023-04-28T05:35:53;100014.94;;;11.74;90.54
62849;BME280;48941;49.516;8.286;2023-04-28T05:38:21;100012.09;;;11.76;90.88
62849;BME280;48941;49.516;8.286;2023-04-28T05:40:49;100004.28;;;11.74;91.93
62849;BME280;48941;49.516;8.286;2023-04-28T05:43:18;100007.06;;;11.73;91.54
62849;BME280;48941;49.516;8.286;2023-04-28T05:45:46;99997.38;;;11.72;92.24
62849;BME280;48941;49.516;8.286;2023-04-28T05:48:14;100004.41;;;11.73;92.71
62849;BME280;48941;49.516;8.286;2023-04-28T05:50:42;100005.25;;;11.73;93.30
62849;BME280;48941;49.516;8.286;2023-04-28T05:53:10;100012.53;;;11.71;93.47
62849;BME280;48941;49.516;8.286;2023-04-28T05:55:38;100011.69;;;11.71;93.76
62849;BME280;48941;49.516;8.286;2023-04-28T05:58:06;100031.22;;;11.71;94.56
62849;BME280;48941;49.516;8.286;2023-04-28T06:00:36;100028.53;;;11.71;94.95
62849;BME280;48941;49.516;8.286;2023-04-28T06:03:03;100030.38;;;11.71;95.08
62849;BME280;48941;49.516;8.286;2023-04-28T06:05:32;100027.00;;;11.69;94.90
62849;BME280;48941;49.516;8.286;2023-04-28T06:08:00;100033.31;;;11.68;95.98
62849;BME280;48941;49.516;8.286;2023-04-28T06:10:29;100030.94;;;11.65;96.66
62849;BME280;48941;49.516;8.286;2023-04-28T06:12:56;100028.66;;;11.60;97.41
62849;BME280;48941;49.516;8.286;2023-04-28T06:15:24;100015.63;;;11.57;97.65
62849;BME280;48941;49.516;8.286;2023-04-28T06:17:53;100016.31;;;11.49;99.73
62849;BME280;48941;49.516;8.286;2023-04-28T06:20:21;100015.59;;;11.47;100.00
62849;BME280;48941;49.516;8.286;2023-04-28T06:22:49;100023.91;;;11.44;99.87
62849;BME280;48941;49.516;8.286;2023-04-28T06:25:17;100028.66;;;11.41;100.00
62849;BME280;48941;49.516;8.286;2023-04-28T06:27:44;100024.00;;;11.33;100.00
62849;BME280;48941;49.516;8.286;2023-04-28T06:30:16;100005.59;;;11.30;100.00
62849;BME280;48941;49.516;8.286;2023-04-28T06:32:44;100000.81;;;11.24;100.00
62849;BME280;48941;49.516;8.286;2023-04-28T06:35:16;100009.81;;;11.23;100.00
62849;BME280;48941;49.516;8.286;2023-04-28T06:37:44;100012.47;;;11.23;100.00
62849;BME280;48941;49.516;8.286;2023-04-28T06:40:11;100024.09;;;11.22;100.00
62849;BME280;48941;49.516;8.286;2023-04-28T06:42:39;100025.50;;;11.26;100.00
62849;BME280;48941;49.516;8.286;2023-04-28T06:45:08;100022.84;;;11.26;100.00
62849;BME280;48941;49.516;8.286;2023-04-28T06:47:36;100017.66;;;11.24;100.00
62849;BME280;48941;49.516;8.286;2023-04-28T06:50:06;100015.72;;;11.26;100.00
62849;BME280;48941;49.516;8.286;2023-04-28T06:52:36;100023.41;;;11.29;100.00
62849;BME280;48941;49.516;8.286;2023-04-28T06:55:06;100027.78;;;11.30;100.00
62849;BME280;48941;49.516;8.286;2023-04-28T06:57:34;100019.78;;;11.30;100.00
62849;BME280;48941;49.516;8.286;2023-04-28T07:00:04;100017.84;;;11.32;100.00
62849;BME280;48941;49.516;8.286;2023-04-28T07:02:32;100015.88;;;11.34;100.00
62849;BME280;48941;49.516;8.286;2023-04-28T07:05:00;100019.38;;;11.35;100.00
62849;BME280;48941;49.516;8.286;2023-04-28T07:07:29;100020.06;;;11.37;100.00
62849;BME280;48941;49.516;8.286;2023-04-28T07:09:58;100008.16;;;11.41;100.00
62849;BME280;48941;49.516;8.286;2023-04-28T07:12:26;100008.72;;;11.45;100.00
62849;BME280;48941;49.516;8.286;2023-04-28T07:14:54;100001.31;;;11.48;100.00
62849;BME280;48941;49.516;8.286;2023-04-28T07:17:22;100014.91;;;11.55;100.00
62849;BME280;48941;49.516;8.286;2023-04-28T07:19:50;100008.91;;;11.63;100.00
62849;BME280;48941;49.516;8.286;2023-04-28T07:22:18;100005.78;;;11.67;100.00
62849;BME280;48941;49.516;8.286;2023-04-28T07:24:46;99995.69;;;11.71;100.00
62849;BME280;48941;49.516;8.286;2023-04-28T07:27:15;100001.44;;;11.76;100.00
62849;BME280;48941;49.516;8.286;2023-04-28T07:29:43;100009.03;;;11.81;100.00
62849;BME280;48941;49.516;8.286;2023-04-28T07:32:11;100001.75;;;11.83;100.00
62849;BME280;48941;49.516;8.286;2023-04-28T07:34:39;99998.78;;;11.86;100.00
62849;BME280;48941;49.516;8.286;2023-04-28T07:37:07;99996.97;;;11.86;100.00
62849;BME280;48941;49.516;8.286;2023-04-28T07:39:35;100000.34;;;11.88;100.00
62849;BME280;48941;49.516;8.286;2023-04-28T07:42:04;99991.22;;;11.91;100.00
62849;BME280;48941;49.516;8.286;2023-04-28T07:44:34;99999.63;;;11.96;100.00
62849;BME280;48941;49.516;8.286;2023-04-28T07:47:02;99991.50;;;11.98;100.00
62849;BME280;48941;49.516;8.286;2023-04-28T07:49:30;100001.59;;;12.04;100.00
62849;BME280;48941;49.516;8.286;2023-04-28T07:51:58;99997.66;;;12.08;100.00
62849;BME280;48941;49.516;8.286;2023-04-28T07:54:26;100002.59;;;12.12;100.00
62849;BME280;48941;49.516;8.286;2023-04-28T07:56:55;99996.69;;;12.19;100.00
62849;BME280;48941;49.516;8.286;2023-04-28T07:59:23;99983.59;;;12.25;100.00
62849;BME280;48941;49.516;8.286;2023-04-28T08:01:52;99985.69;;;12.31;100.00
62849;BME280;48941;49.516;8.286;2023-04-28T08:04:21;99985.56;;;12.33;100.00
62849;BME280;48941;49.516;8.286;2023-04-28T08:06:50;99990.88;;;12.33;100.00
62849;BME280;48941;49.516;8.286;2023-04-28T08:09:18;100000.28;;;12.37;100.00
62849;BME280;48941;49.516;8.286;2023-04-28T08:11:45;99995.50;;;12.41;100.00
62849;BME280;48941;49.516;8.286;2023-04-28T08:14:13;99987.06;;;12.45;100.00
62849;BME280;48941;49.516;8.286;2023-04-28T08:16:41;99986.34;;;12.53;100.00
62849;BME280;48941;49.516;8.286;2023-04-28T08:19:11;99980.69;;;12.56;100.00
62849;BME280;48941;49.516;8.286;2023-04-28T08:21:38;99986.44;;;12.61;100.00
62849;BME280;48941;49.516;8.286;2023-04-28T08:24:06;100001.06;;;12.67;100.00
62849;BME280;48941;49.516;8.286;2023-04-28T08:26:36;100000.63;;;12.71;100.00
62849;BME280;48941;49.516;8.286;2023-04-28T08:29:04;100007.06;;;12.79;100.00
62849;BME280;48941;49.516;8.286;2023-04-28T08:31:32;100004.09;;;12.82;100.00
62849;BME280;48941;49.516;8.286;2023-04-28T08:34:00;100003.66;;;12.86;100.00
62849;BME280;48941;49.516;8.286;2023-04-28T08:36:29;100003.78;;;12.94;100.00
62849;BME280;48941;49.516;8.286;2023-04-28T08:38:59;100003.03;;;13.02;100.00
62849;BME280;48941;49.516;8.286;2023-04-28T08:41:31;100005.81;;;13.10;100.00
62849;BME280;48941;49.516;8.286;2023-04-28T08:43:59;100001.69;;;13.16;100.00
62849;BME280;48941;49.516;8.286;2023-04-28T08:46:27;99998.41;;;13.32;100.00
62849;BME280;48941;49.516;8.286;2023-04-28T08:48:59;100009.47;;;13.37;100.00
62849;BME280;48941;49.516;8.286;2023-04-28T08:51:32;100010.72;;;13.43;100.00
62849;BME280;48941;49.516;8.286;2023-04-28T08:54:02;100010.66;;;13.52;100.00
62849;BME280;48941;49.516;8.286;2023-04-28T08:56:34;100002.63;;;13.52;100.00
62849;BME280;48941;49.516;8.286;2023-04-28T08:59:03;100007.97;;;13.52;100.00
62849;BME280;48941;49.516;8.286;2023-04-28T09:01:31;100008.06;;;13.61;100.00
62849;BME280;48941;49.516;8.286;2023-04-28T09:04:00;100003.94;;;13.66;100.00
62849;BME280;48941;49.516;8.286;2023-04-28T09:06:41;100015.00;;;13.71;100.00
62849;BME280;48941;49.516;8.286;2023-04-28T09:09:20;100017.38;;;13.74;100.00
62849;BME280;48941;49.516;8.286;2023-04-28T09:11:52;100025.78;;;13.80;100.00
62849;BME280;48941;49.516;8.286;2023-04-28T09:14:20;100026.31;;;13.83;100.00
62849;BME280;48941;49.516;8.286;2023-04-28T09:16:49;100018.38;;;13.91;100.00
62849;BME280;48941;49.516;8.286;2023-04-28T09:19:17;100017.69;;;13.89;100.00
62849;BME280;48941;49.516;8.286;2023-04-28T09:21:48;100018.38;;;13.91;100.00
62849;BME280;48941;49.516;8.286;2023-04-28T09:24:27;100019.91;;;13.94;100.00
62849;BME280;48941;49.516;8.286;2023-04-28T09:26:55;100012.41;;;13.98;100.00
62849;BME280;48941;49.516;8.286;2023-04-28T09:29:23;100017.31;;;14.02;100.00
62849;BME280;48941;49.516;8.286;2023-04-28T09:31:51;100012.31;;;14.07;100.00
62849;BME280;48941;49.516;8.286;2023-04-28T09:34:19;100018.34;;;14.09;100.00
62849;BME280;48941;49.516;8.286;2023-04-28T09:36:49;100014.00;;;14.08;100.00
62849;BME280;48941;49.516;8.286;2023-04-28T09:39:27;100015.84;;;14.08;100.00
62849;BME280;48941;49.516;8.286;2023-04-28T09:41:56;100021.91;;;14.10;100.00
62849;BME280;48941;49.516;8.286;2023-04-28T09:44:28;100023.72;;;14.09;100.00
62849;BME280;48941;49.516;8.286;2023-04-28T09:46:56;100021.72;;;14.11;100.00
62849;BME280;48941;49.516;8.286;2023-04-28T09:49:24;100016.38;;;14.11;100.00
62849;BME280;48941;49.516;8.286;2023-04-28T09:51:53;100024.56;;;14.10;100.00
62849;BME280;48941;49.516;8.286;2023-04-28T09:54:21;100028.63;;;14.14;100.00
62849;BME280;48941;49.516;8.286;2023-04-28T09:56:52;100023.28;;;14.14;100.00
62849;BME280;48941;49.516;8.286;2023-04-28T09:59:21;100030.28;;;14.15;100.00
62849;BME280;48941;49.516;8.286;2023-04-28T10:01:49;100026.44;;;14.18;100.00
62849;BME280;48941;49.516;8.286;2023-04-28T10:04:17;100017.28;;;14.20;100.00
62849;BME280;48941;49.516;8.286;2023-04-28T10:06:45;100018.81;;;14.23;100.00
62849;BME280;48941;49.516;8.286;2023-04-28T10:09:15;100019.50;;;14.25;100.00
62849;BME280;48941;49.516;8.286;2023-04-28T10:11:43;100021.88;;;14.28;100.00
62849;BME280;48941;49.516;8.286;2023-04-28T10:14:12;100031.44;;;14.30;100.00
62849;BME280;48941;49.516;8.286;2023-04-28T10:16:40;100040.16;;;14.32;100.00
62849;BME280;48941;49.516;8.286;2023-04-28T10:19:09;100035.31;;;14.36;100.00
62849;BME280;48941;49.516;8.286;2023-04-28T10:21:46;100035.16;;;14.38;100.00
62849;BME280;48941;49.516;8.286;2023-04-28T10:24:22;100036.69;;;14.40;100.00
62849;BME280;48941;49.516;8.286;2023-04-28T10:27:07;100030.84;;;14.45;100.00
62849;BME280;48941;49.516;8.286;2023-04-28T10:29:36;100027.19;;;14.46;100.00
62849;BME280;48941;49.516;8.286;2023-04-28T10:32:20;100019.66;;;14.49;100.00
62849;BME280;48941;49.516;8.286;2023-04-28T10:34:49;100018.34;;;14.53;100.00
62849;BME280;48941;49.516;8.286;2023-04-28T10:37:17;100023.28;;;14.58;100.00
62849;BME280;48941;49.516;8.286;2023-04-28T10:40:31;100024.66;;;14.62;100.00
62849;BME280;48941;49.516;8.286;2023-04-28T10:42:59;100014.47;;;14.66;100.00
62849;BME280;48941;49.516;8.286;2023-04-28T10:46:00;100021.19;;;14.70;100.00
62849;BME280;48941;49.516;8.286;2023-04-28T10:48:53;100021.69;;;14.73;100.00
62849;BME280;48941;49.516;8.286;2023-04-28T10:51:28;100023.22;;;14.76;100.00
62849;BME280;48941;49.516;8.286;2023-04-28T10:54:16;100022.06;;;14.79;100.00
62849;BME280;48941;49.516;8.286;2023-04-28T10:57:18;100010.16;;;14.81;100.00
62849;BME280;48941;49.516;8.286;2023-04-28T10:59:47;100013.53;;;14.83;100.00
62849;BME280;48941;49.516;8.286;2023-04-28T11:02:40;99998.97;;;14.86;100.00
62849;BME280;48941;49.516;8.286;2023-04-28T11:05:17;99999.66;;;14.88;100.00
62849;BME280;48941;49.516;8.286;2023-04-28T11:11:19;100004.84;;;14.89;100.00
62849;BME280;48941;49.516;8.286;2023-04-28T11:13:50;100012.88;;;14.89;100.00
62849;BME280;48941;49.516;8.286;2023-04-28T11:16:21;100006.69;;;14.89;100.00
62849;BME280;48941;49.516;8.286;2023-04-28T11:18:52;100003.16;;;14.88;100.00
62849;BME280;48941;49.516;8.286;2023-04-28T11:21:23;100000.78;;;14.85;100.00
62849;BME280;48941;49.516;8.286;2023-04-28T11:23:51;100000.28;;;14.82;100.00
62849;BME280;48941;49.516;8.286;2023-04-28T11:26:19;100002.94;;;14.82;100.00
62849;BME280;48941;49.516;8.286;2023-04-28T11:28:52;100004.81;;;14.81;100.00
62849;BME280;48941;49.516;8.286;2023-04-28T11:31:21;100010.53;;;14.86;100.00
62849;BME280;48941;49.516;8.286;2023-04-28T11:33:58;99999.66;;;14.88;100.00
62849;BME280;48941;49.516;8.286;2023-04-28T11:36:29;100010.19;;;14.89;100.00
62849;BME280;48941;49.516;8.286;2023-04-28T11:38:58;100022.63;;;14.90;100.00
62849;BME280;48941;49.516;8.286;2023-04-28T11:41:26;100024.13;;;14.93;100.00
62849;BME280;48941;49.516;8.286;2023-04-28T11:43:55;100019.44;;;14.95;100.00
62849;BME280;48941;49.516;8.286;2023-04-28T11:46:24;100013.09;;;14.96;100.00
62849;BME280;48941;49.516;8.286;2023-04-28T11:48:59;100017.44;;;14.97;100.00
62849;BME280;48941;49.516;8.286;2023-04-28T11:51:37;100021.63;;;15.00;100.00
62849;BME280;48941;49.516;8.286;2023-04-28T11:54:07;100011.09;;;14.98;100.00
62849;BME280;48941;49.516;8.286;2023-04-28T11:56:37;100004.19;;;14.96;100.00
62849;BME280;48941;49.516;8.286;2023-04-28T11:59:08;100013.41;;;14.93;100.00
62849;BME280;48941;49.516;8.286;2023-04-28T12:01:45;100025.16;;;14.92;100.00
62849;BME280;48941;49.516;8.286;2023-04-28T12:04:15;100005.84;;;14.88;100.00
62849;BME280;48941;49.516;8.286;2023-04-28T12:07:01;100021.41;;;14.85;100.00
62849;BME280;48941;49.516;8.286;2023-04-28T12:09:30;100027.59;;;14.85;100.00
62849;BME280;48941;49.516;8.286;2023-04-28T12:11:59;100014.69;;;14.81;100.00
62849;BME280;48941;49.516;8.286;2023-04-28T12:14:30;100013.00;;;14.80;100.00
62849;BME280;48941;49.516;8.286;2023-04-28T12:17:01;100012.53;;;14.84;100.00
62849;BME280;48941;49.516;8.286;2023-04-28T12:19:31;100024.78;;;14.87;100.00
62849;BME280;48941;49.516;8.286;2023-04-28T12:22:09;100027.31;;;14.88;100.00
62849;BME280;48941;49.516;8.286;2023-04-28T12:24:37;100028.97;;;14.89;100.00
62849;BME280;48941;49.516;8.286;2023-04-28T12:27:13;100028.66;;;14.92;100.00
62849;BME280;48941;49.516;8.286;2023-04-28T12:29:43;100027.34;;;14.97;100.00
62849;BME280;48941;49.516;8.286;2023-04-28T12:32:13;100025.03;;;15.02;100.00
62849;BME280;48941;49.516;8.286;2023-04-28T12:34:43;100034.44;;;15.06;100.00
62849;BME280;48941;49.516;8.286;2023-04-28T12:37:12;100023.53;;;15.07;100.00
62849;BME280;48941;49.516;8.286;2023-04-28T12:39:41;100039.31;;;15.10;100.00
62849;BME280;48941;49.516;8.286;2023-04-28T12:42:09;100032.09;;;15.11;100.00
62849;BME280;48941;49.516;8.286;2023-04-28T12:44:37;100035.44;;;15.13;100.00
62849;BME280;48941;49.516;8.286;2023-04-28T12:47:08;100031.78;;;15.14;100.00
62849;BME280;48941;49.516;8.286;2023-04-28T12:49:37;100023.41;;;15.17;100.00
62849;BME280;48941;49.516;8.286;2023-04-28T12:52:05;100024.75;;;15.21;100.00
62849;BME280;48941;49.516;8.286;2023-04-28T12:54:33;100015.22;;;15.27;100.00
62849;BME280;48941;49.516;8.286;2023-04-28T12:57:01;100036.72;;;15.35;100.00
62849;BME280;48941;49.516;8.286;2023-04-28T12:59:29;100040.91;;;15.38;100.00
62849;BME280;48941;49.516;8.286;2023-04-28T13:01:58;100045.81;;;15.42;100.00